createdAt,value
2023-01-19T00:01:46.158Z,100.00
2023-01-19T00:04:16.109Z,100.00
2023-01-19T00:06:45.915Z,100.00
2023-01-19T00:09:15.681Z,100.00
2023-01-19T00:11:46.855Z,100.00
2023-01-19T00:14:16.715Z,100.00
2023-01-19T00:16:46.380Z,100.00
2023-01-19T00:19:17.022Z,100.00
2023-01-19T00:21:46.718Z,100.00
2023-01-19T00:24:16.762Z,100.00
2023-01-19T00:26:48.141Z,100.00
2023-01-19T00:29:18.237Z,100.00
2023-01-19T00:31:48.141Z,100.00
2023-01-19T00:34:18.277Z,100.00
2023-01-19T00:36:48.038Z,100.00
2023-01-19T00:39:18.224Z,100.00
2023-01-19T00:42:06.930Z,100.00
2023-01-19T00:44:36.721Z,100.00
2023-01-19T00:50:41.238Z,100.00
2023-01-19T00:53:11.002Z,100.00
2023-01-19T00:55:41.039Z,100.00
2023-01-19T00:58:11.227Z,100.00
2023-01-19T01:00:41.176Z,100.00
2023-01-19T01:03:11.601Z,100.00
2023-01-19T01:05:44.803Z,100.00
2023-01-19T01:08:14.441Z,100.00
2023-01-19T01:10:44.121Z,100.00
2023-01-19T01:13:20.538Z,100.00
2023-01-19T01:15:52.923Z,100.00
2023-01-19T01:18:23.299Z,100.00
2023-01-19T01:20:56.257Z,100.00
2023-01-19T01:23:26.299Z,100.00
2023-01-19T01:25:56.138Z,100.00
2023-01-19T01:28:25.927Z,100.00
2023-01-19T01:30:56.399Z,100.00
2023-01-19T01:33:41.189Z,100.00
2023-01-19T01:36:13.884Z,100.00
2023-01-19T01:38:44.339Z,100.00
2023-01-19T01:41:14.642Z,100.00
2023-01-19T01:43:51.381Z,100.00
2023-01-19T01:46:21.467Z,100.00
2023-01-19T01:48:59.880Z,100.00
2023-01-19T01:51:36.663Z,100.00
2023-01-19T01:54:18.978Z,100.00
2023-01-19T01:56:52.199Z,100.00
2023-01-19T01:59:27.437Z,100.00
2023-01-19T02:02:32.880Z,100.00
2023-01-19T02:05:06.582Z,100.00
2023-01-19T02:08:04.612Z,100.00
2023-01-19T02:10:52.008Z,100.00
2023-01-19T02:13:22.906Z,100.00
2023-01-19T02:15:55.158Z,100.00
2023-01-19T02:18:29.639Z,100.00
2023-01-19T02:21:13.358Z,100.00
2023-01-19T02:23:48.140Z,100.00
2023-01-19T02:26:22.944Z,100.00
2023-01-19T02:28:58.984Z,100.00
2023-01-19T02:31:30.412Z,100.00
2023-01-19T02:34:01.298Z,100.00
2023-01-19T02:36:36.900Z,100.00
2023-01-19T02:39:11.274Z,100.00
2023-01-19T02:41:45.667Z,100.00
2023-01-19T02:44:17.141Z,100.00
2023-01-19T02:46:47.220Z,100.00
2023-01-19T02:49:17.123Z,100.00
2023-01-19T02:51:47.357Z,100.00
2023-01-19T02:54:48.479Z,100.00
2023-01-19T02:57:58.308Z,100.00
2023-01-19T03:00:39.066Z,100.00
2023-01-19T03:03:25.940Z,100.00
2023-01-19T03:06:05.164Z,100.00
2023-01-19T03:08:45.923Z,100.00
2023-01-19T03:11:18.144Z,100.00
2023-01-19T03:13:53.384Z,100.00
2023-01-19T03:16:29.050Z,100.00
2023-01-19T03:19:04.259Z,100.00
2023-01-19T03:21:39.478Z,100.00
2023-01-19T03:24:14.758Z,100.00
2023-01-19T03:26:51.239Z,100.00
2023-01-19T03:29:25.198Z,100.00
2023-01-19T03:31:56.838Z,100.00
2023-01-19T03:34:27.279Z,100.00
2023-01-19T03:37:02.290Z,100.00
2023-01-19T03:39:32.178Z,100.00
2023-01-19T03:42:08.385Z,100.00
2023-01-19T03:44:40.660Z,100.00
2023-01-19T03:47:13.739Z,100.00
2023-01-19T03:51:42.336Z,100.00
2023-01-19T03:54:13.581Z,100.00
2023-01-19T03:56:44.099Z,100.00
2023-01-19T03:59:17.712Z,100.00
2023-01-19T04:01:47.651Z,100.00
2023-01-19T04:04:17.597Z,100.00
2023-01-19T04:06:48.954Z,100.00
2023-01-19T04:09:20.082Z,100.00
2023-01-19T04:11:50.201Z,100.00
2023-01-19T04:14:20.186Z,100.00
2023-01-19T04:16:50.042Z,100.00
2023-01-19T04:19:19.758Z,100.00
2023-01-19T04:21:52.810Z,100.00
2023-01-19T04:24:22.718Z,100.00
2023-01-19T04:26:54.419Z,100.00
2023-01-19T04:29:24.850Z,100.00
2023-01-19T04:31:54.600Z,100.00
2023-01-19T04:34:24.545Z,100.00
2023-01-19T04:36:56.368Z,100.00
2023-01-19T04:39:26.438Z,100.00
2023-01-19T04:41:57.771Z,100.00
2023-01-19T04:44:27.639Z,100.00
2023-01-19T04:46:57.419Z,100.00
2023-01-19T04:49:27.407Z,100.00
2023-01-19T04:51:58.881Z,100.00
2023-01-19T04:54:28.872Z,100.00
2023-01-19T04:56:58.759Z,100.00
2023-01-19T04:59:28.687Z,100.00
2023-01-19T05:01:58.616Z,100.00
2023-01-19T05:04:28.761Z,100.00
2023-01-19T05:06:59.997Z,100.00
2023-01-19T05:09:29.783Z,100.00
2023-01-19T05:11:59.689Z,100.00
2023-01-19T05:14:29.518Z,100.00
2023-01-19T05:16:59.719Z,100.00
2023-01-19T05:19:29.598Z,100.00
2023-01-19T05:22:00.959Z,100.00
2023-01-19T05:24:30.719Z,100.00
2023-01-19T05:27:00.980Z,100.00
2023-01-19T05:29:30.798Z,100.00
2023-01-19T05:32:01.407Z,100.00
2023-01-19T05:34:31.260Z,100.00
2023-01-19T05:37:02.458Z,100.00
2023-01-19T05:39:32.352Z,100.00
2023-01-19T05:42:02.240Z,100.00
2023-01-19T05:44:32.116Z,100.00
2023-01-19T05:47:01.961Z,100.00
2023-01-19T05:49:31.798Z,100.00
2023-01-19T05:52:03.084Z,100.00
2023-01-19T05:54:33.225Z,100.00
2023-01-19T05:57:03.490Z,100.00
2023-01-19T05:59:33.278Z,100.00
2023-01-19T06:02:03.072Z,100.00
2023-01-19T06:04:33.117Z,100.00
2023-01-19T06:07:04.440Z,100.00
2023-01-19T06:09:34.263Z,100.00
2023-01-19T06:12:04.235Z,100.00
2023-01-19T06:14:34.116Z,100.00
2023-01-19T06:17:03.980Z,100.00
2023-01-19T06:19:33.839Z,100.00
2023-01-19T06:22:05.398Z,100.00
2023-01-19T06:24:36.844Z,100.00
2023-01-19T06:27:06.921Z,100.00
2023-01-19T06:29:36.978Z,100.00
2023-01-19T06:32:07.659Z,100.00
2023-01-19T06:34:37.538Z,100.00
2023-01-19T06:37:08.918Z,100.00
2023-01-19T06:39:41.362Z,100.00
2023-01-19T06:42:11.719Z,100.00
2023-01-19T06:44:47.692Z,100.00
2023-01-19T06:47:18.207Z,100.00
2023-01-19T06:51:41.226Z,100.00
2023-01-19T06:54:11.358Z,100.00
2023-01-19T06:56:41.218Z,100.00
2023-01-19T06:59:11.419Z,100.00
2023-01-19T07:01:41.373Z,100.00
2023-01-19T07:04:14.397Z,100.00
2023-01-19T07:06:45.698Z,100.00
2023-01-19T07:09:17.317Z,100.00
2023-01-19T07:11:47.417Z,100.00
2023-01-19T07:14:17.338Z,100.00
2023-01-19T07:16:47.260Z,100.00
2023-01-19T07:19:17.121Z,100.00
2023-01-19T07:21:48.390Z,100.00
2023-01-19T07:24:18.646Z,100.00
2023-01-19T07:26:49.226Z,100.00
2023-01-19T07:29:19.178Z,100.00
2023-01-19T07:31:49.884Z,100.00
2023-01-19T07:34:21.764Z,100.00
2023-01-19T07:36:53.158Z,100.00
2023-01-19T07:39:24.183Z,100.00
2023-01-19T07:41:54.303Z,100.00
2023-01-19T07:44:24.186Z,100.00
2023-01-19T07:46:54.061Z,100.00
2023-01-19T07:49:23.958Z,100.00
2023-01-19T07:51:56.637Z,100.00
2023-01-19T07:54:26.360Z,100.00
2023-01-19T07:56:56.861Z,100.00
2023-01-19T07:59:26.683Z,100.00
2023-01-19T08:01:58.158Z,100.00
2023-01-19T08:04:28.783Z,100.00
2023-01-19T08:07:00.209Z,100.00
2023-01-19T08:09:30.079Z,100.00
2023-01-19T08:11:59.900Z,100.00
2023-01-19T08:14:29.759Z,100.00
2023-01-19T08:17:02.323Z,100.00
2023-01-19T08:19:32.402Z,99.34
2023-01-19T08:22:04.201Z,98.06
2023-01-19T08:24:34.577Z,97.77
2023-01-19T08:27:05.480Z,97.42
2023-01-19T08:29:35.358Z,96.66
2023-01-19T08:32:05.293Z,95.19
2023-01-19T08:34:35.498Z,94.23
2023-01-19T08:37:07.067Z,92.96
2023-01-19T08:39:36.960Z,90.94
2023-01-19T08:42:06.840Z,89.20
2023-01-19T08:44:41.273Z,88.23
2023-01-19T08:47:13.853Z,87.88
2023-01-19T08:49:43.761Z,87.32
2023-01-19T08:52:15.063Z,86.95
2023-01-19T08:54:44.841Z,85.43
2023-01-19T08:57:15.060Z,86.06
2023-01-19T08:59:47.758Z,86.43
2023-01-19T09:02:17.598Z,86.08
2023-01-19T09:04:47.466Z,85.80
2023-01-19T09:07:20.124Z,85.19
2023-01-19T09:09:49.462Z,85.25
2023-01-19T09:12:19.350Z,86.29
2023-01-19T09:14:49.221Z,86.77
2023-01-19T09:17:19.282Z,86.96
2023-01-19T09:19:49.139Z,85.86
2023-01-19T09:22:20.600Z,85.61
2023-01-19T09:24:50.439Z,83.68
2023-01-19T09:27:20.561Z,83.62
2023-01-19T09:29:53.027Z,83.04
2023-01-19T09:32:24.088Z,83.39
2023-01-19T09:34:54.386Z,83.31
2023-01-19T09:37:25.741Z,82.59
2023-01-19T09:39:55.748Z,81.56
2023-01-19T09:42:35.520Z,81.52
2023-01-19T09:45:12.112Z,80.53
2023-01-19T09:47:42.502Z,79.70
2023-01-19T09:51:45.883Z,79.07
2023-01-19T09:54:18.516Z,78.50
2023-01-19T09:56:52.414Z,77.84
2023-01-19T09:59:25.939Z,77.88
2023-01-19T10:02:22.530Z,77.46
2023-01-19T10:05:02.838Z,78.14
2023-01-19T10:08:03.861Z,77.69
2023-01-19T10:10:34.919Z,77.33
2023-01-19T10:13:31.684Z,77.63
2023-01-19T10:16:16.260Z,77.47
2023-01-19T10:18:48.759Z,77.98
2023-01-19T10:21:21.148Z,77.88
2023-01-19T10:23:57.835Z,78.39
2023-01-19T10:26:34.978Z,78.69
2023-01-19T10:29:10.920Z,77.86
2023-01-19T10:31:45.060Z,77.61
2023-01-19T10:34:21.585Z,77.94
2023-01-19T10:37:00.852Z,76.94
2023-01-19T10:39:34.855Z,77.36
2023-01-19T10:42:10.863Z,76.70
2023-01-19T10:44:41.035Z,77.41
2023-01-19T10:47:19.569Z,78.04
2023-01-19T10:49:50.667Z,78.03
2023-01-19T10:52:31.901Z,78.50
2023-01-19T10:55:05.964Z,78.64
2023-01-19T10:57:39.226Z,78.35
2023-01-19T11:00:31.748Z,78.72
2023-01-19T11:03:02.233Z,77.68
2023-01-19T11:05:35.213Z,77.30
2023-01-19T11:08:29.239Z,76.79
2023-01-19T11:11:08.457Z,77.03
2023-01-19T11:13:39.038Z,77.19
2023-01-19T11:16:17.483Z,77.88
2023-01-19T11:18:48.145Z,78.54
2023-01-19T11:21:19.944Z,77.18
2023-01-19T11:23:53.282Z,77.78
2023-01-19T11:26:32.457Z,79.34
2023-01-19T11:29:05.585Z,79.91
2023-01-19T11:31:38.484Z,78.93
2023-01-19T11:34:25.980Z,79.24
2023-01-19T11:37:01.145Z,78.71
2023-01-19T11:39:34.258Z,79.69
2023-01-19T11:42:07.978Z,79.40
2023-01-19T11:44:44.971Z,78.29
2023-01-19T11:47:19.336Z,78.19
2023-01-19T11:50:00.059Z,79.16
2023-01-19T11:52:34.826Z,79.45
2023-01-19T11:55:18.259Z,80.34
2023-01-19T11:57:54.493Z,80.53
2023-01-19T12:00:35.945Z,80.33
2023-01-19T12:03:15.472Z,79.14
2023-01-19T12:05:52.094Z,79.38
2023-01-19T12:08:27.942Z,80.37
2023-01-19T12:11:01.303Z,80.34
2023-01-19T12:13:34.099Z,81.38
2023-01-19T12:16:09.666Z,81.34
2023-01-19T12:18:45.677Z,81.00
2023-01-19T12:21:15.743Z,80.75
2023-01-19T12:24:02.937Z,81.30
2023-01-19T12:26:39.003Z,79.91
2023-01-19T12:29:17.039Z,79.47
2023-01-19T12:31:48.028Z,79.25
2023-01-19T12:34:41.003Z,78.47
2023-01-19T12:37:43.757Z,78.13
2023-01-19T12:40:28.298Z,77.69
2023-01-19T12:43:05.408Z,76.52
2023-01-19T12:45:40.182Z,77.77
2023-01-19T12:51:41.376Z,78.53
2023-01-19T12:54:22.819Z,79.10
2023-01-19T12:57:01.081Z,78.85
2023-01-19T12:59:33.941Z,78.52
2023-01-19T13:02:52.434Z,78.82
2023-01-19T13:05:54.458Z,78.51
2023-01-19T13:09:02.777Z,78.35
2023-01-19T13:11:34.611Z,78.76
2023-01-19T13:14:37.727Z,78.31
2023-01-19T13:17:27.641Z,78.12
2023-01-19T13:20:25.786Z,76.15
2023-01-19T13:23:26.053Z,76.16
2023-01-19T13:26:09.099Z,75.48
2023-01-19T13:28:44.198Z,75.29
2023-01-19T13:31:16.167Z,75.41
2023-01-19T13:33:51.941Z,76.40
2023-01-19T13:36:27.922Z,76.37
2023-01-19T13:39:00.883Z,75.92
2023-01-19T13:41:38.657Z,75.84
2023-01-19T13:44:15.161Z,74.82
2023-01-19T13:46:45.717Z,74.86
2023-01-19T13:49:22.690Z,75.75
2023-01-19T13:52:09.378Z,74.80
2023-01-19T13:54:39.226Z,73.24
2023-01-19T13:57:25.851Z,73.56
2023-01-19T14:00:13.155Z,73.76
2023-01-19T14:02:52.689Z,74.86
2023-01-19T14:05:26.905Z,74.87
2023-01-19T14:08:08.231Z,75.48
2023-01-19T14:10:41.817Z,76.31
2023-01-19T14:13:21.198Z,77.27
2023-01-19T14:15:54.246Z,77.69
2023-01-19T14:18:30.417Z,78.29
2023-01-19T14:21:06.540Z,79.05
2023-01-19T14:23:45.519Z,79.89
2023-01-19T14:26:46.919Z,81.07
2023-01-19T14:29:29.216Z,81.85
2023-01-19T14:32:16.291Z,82.26
2023-01-19T14:34:48.818Z,82.85
2023-01-19T14:37:23.557Z,83.39
2023-01-19T14:39:56.935Z,83.51
2023-01-19T14:42:31.991Z,83.88
2023-01-19T14:45:06.590Z,84.36
2023-01-19T14:47:41.317Z,84.67
2023-01-19T14:50:24.549Z,85.21
2023-01-19T14:52:59.384Z,85.46
2023-01-19T14:55:38.250Z,85.93
2023-01-19T14:58:13.566Z,86.28
2023-01-19T15:00:46.171Z,86.38
2023-01-19T15:03:15.978Z,86.51
2023-01-19T15:05:47.959Z,86.57
2023-01-19T15:08:21.086Z,86.77
2023-01-19T15:10:51.079Z,86.81
2023-01-19T15:13:23.823Z,87.00
2023-01-19T15:15:56.058Z,87.01
2023-01-19T15:18:29.263Z,87.26
2023-01-19T15:21:03.169Z,87.34
2023-01-19T15:23:33.721Z,87.70
2023-01-19T15:26:06.280Z,88.00
2023-01-19T15:28:36.239Z,88.14
2023-01-19T15:31:08.193Z,88.32
2023-01-19T15:33:38.022Z,88.24
2023-01-19T15:36:08.341Z,88.39
2023-01-19T15:38:38.279Z,88.72
2023-01-19T15:41:15.354Z,88.92
2023-01-19T15:43:45.397Z,89.04
2023-01-19T15:46:19.298Z,89.01
2023-01-19T15:51:40.981Z,89.39
2023-01-19T15:54:15.838Z,89.54
2023-01-19T15:56:45.762Z,89.69
2023-01-19T15:59:15.877Z,90.16
2023-01-19T16:01:45.762Z,90.38
2023-01-19T16:04:18.099Z,90.78
2023-01-19T16:06:50.344Z,91.03
2023-01-19T16:09:20.418Z,90.94
2023-01-19T16:11:50.309Z,90.83
2023-01-19T16:14:20.259Z,90.83
2023-01-19T16:16:50.095Z,90.86
2023-01-19T16:19:19.998Z,90.90
2023-01-19T16:21:51.324Z,91.32
2023-01-19T16:24:22.199Z,91.50
2023-01-19T16:26:52.179Z,91.83
2023-01-19T16:29:22.018Z,91.61
2023-01-19T16:31:52.081Z,91.77
2023-01-19T16:34:22.918Z,91.56
2023-01-19T16:36:54.439Z,91.52
2023-01-19T16:39:24.398Z,91.52
2023-01-19T16:41:54.241Z,91.66
2023-01-19T16:44:24.079Z,91.70
2023-01-19T16:46:54.719Z,91.66
2023-01-19T16:49:28.417Z,91.65
2023-01-19T16:52:00.386Z,91.25
2023-01-19T16:54:32.459Z,91.20
2023-01-19T16:57:02.623Z,91.22
2023-01-19T16:59:32.566Z,91.19
2023-01-19T17:02:03.054Z,91.27
2023-01-19T17:04:33.022Z,91.42
2023-01-19T17:07:04.338Z,91.40
2023-01-19T17:09:34.371Z,91.58
2023-01-19T17:12:04.422Z,91.64
2023-01-19T17:14:34.278Z,91.76
2023-01-19T17:17:04.624Z,92.26
2023-01-19T17:19:34.505Z,92.23
2023-01-19T17:22:05.851Z,92.17
2023-01-19T17:24:35.780Z,92.37
2023-01-19T17:27:05.703Z,92.51
2023-01-19T17:29:35.561Z,92.32
2023-01-19T17:32:05.537Z,92.36
2023-01-19T17:34:35.376Z,92.59
2023-01-19T17:37:06.803Z,92.87
2023-01-19T17:39:36.559Z,92.56
2023-01-19T17:42:06.560Z,92.58
2023-01-19T17:44:36.500Z,92.84
2023-01-19T17:47:06.383Z,93.39
2023-01-19T17:49:37.439Z,93.29
2023-01-19T17:52:08.850Z,93.42
2023-01-19T17:54:38.556Z,93.42
2023-01-19T17:57:08.338Z,93.32
2023-01-19T17:59:40.058Z,93.37
2023-01-19T18:02:12.038Z,93.66
2023-01-19T18:04:42.740Z,93.79
2023-01-19T18:07:14.077Z,94.30
2023-01-19T18:09:44.086Z,94.33
2023-01-19T18:12:13.967Z,94.20
2023-01-19T18:14:44.181Z,94.42
2023-01-19T18:17:15.366Z,94.83
2023-01-19T18:19:45.198Z,95.08
2023-01-19T18:22:16.439Z,95.27
2023-01-19T18:24:46.237Z,95.88
2023-01-19T18:27:16.718Z,96.17
2023-01-19T18:29:46.788Z,97.02
2023-01-19T18:32:16.701Z,96.93
2023-01-19T18:34:46.498Z,97.11
2023-01-19T18:37:17.684Z,97.80
2023-01-19T18:39:47.584Z,97.70
2023-01-19T18:42:17.492Z,97.86
2023-01-19T18:44:47.532Z,98.15
2023-01-19T18:47:17.378Z,98.06
2023-01-19T18:51:41.889Z,98.19
2023-01-19T18:54:13.578Z,97.91
2023-01-19T18:56:43.338Z,98.14
2023-01-19T18:59:13.157Z,98.36
2023-01-19T19:01:43.047Z,97.99
2023-01-19T19:04:12.967Z,98.47
2023-01-19T19:06:44.379Z,98.72
2023-01-19T19:09:14.243Z,98.83
2023-01-19T19:11:44.039Z,98.71
2023-01-19T19:14:13.835Z,99.22
2023-01-19T19:16:43.759Z,99.10
2023-01-19T19:19:15.762Z,99.22
2023-01-19T19:21:47.221Z,99.47
2023-01-19T19:24:17.223Z,99.62
2023-01-19T19:26:46.977Z,99.68
2023-01-19T19:29:16.775Z,99.93
2023-01-19T19:31:47.601Z,99.81
2023-01-19T19:34:17.644Z,100.00
2023-01-19T19:36:49.019Z,100.00
2023-01-19T19:39:18.940Z,100.00
2023-01-19T19:41:49.199Z,100.00
2023-01-19T19:44:20.294Z,100.00
2023-01-19T19:46:50.206Z,100.00
2023-01-19T19:49:21.778Z,100.00
2023-01-19T19:51:53.078Z,100.00
2023-01-19T19:54:22.998Z,100.00
2023-01-19T19:56:52.753Z,100.00
2023-01-19T19:59:22.422Z,100.00
2023-01-19T20:01:53.986Z,100.00
2023-01-19T20:04:25.632Z,100.00
2023-01-19T20:06:59.522Z,100.00
2023-01-19T20:09:29.529Z,100.00
2023-01-19T20:11:59.359Z,100.00
2023-01-19T20:14:29.245Z,100.00
2023-01-19T20:16:59.078Z,100.00
2023-01-19T20:19:31.110Z,100.00
2023-01-19T20:22:03.844Z,100.00
2023-01-19T20:24:33.679Z,100.00
2023-01-19T20:27:03.645Z,100.00
2023-01-19T20:29:33.463Z,100.00
2023-01-19T20:32:03.297Z,100.00
2023-01-19T20:34:36.021Z,100.00
2023-01-19T20:37:06.957Z,100.00
2023-01-19T20:39:37.502Z,100.00
2023-01-19T20:42:11.593Z,100.00
2023-01-19T20:44:41.497Z,100.00
2023-01-19T20:47:11.741Z,100.00
2023-01-19T20:49:41.720Z,100.00
2023-01-19T20:52:13.037Z,100.00
2023-01-19T20:54:42.918Z,100.00
2023-01-19T20:57:12.697Z,100.00
2023-01-19T20:59:42.798Z,100.00
2023-01-19T21:02:15.384Z,100.00
2023-01-19T21:04:45.160Z,100.00
2023-01-19T21:07:16.577Z,100.00
2023-01-19T21:09:46.436Z,100.00
2023-01-19T21:12:16.707Z,100.00
2023-01-19T21:14:46.657Z,100.00
2023-01-19T21:17:16.337Z,100.00
2023-01-19T21:19:46.324Z,100.00
2023-01-19T21:22:17.698Z,100.00
2023-01-19T21:24:48.069Z,100.00
2023-01-19T21:27:17.923Z,100.00
2023-01-19T21:29:49.117Z,99.87
2023-01-19T21:32:18.958Z,99.85
2023-01-19T21:34:48.697Z,99.78
2023-01-19T21:37:19.998Z,99.45
2023-01-19T21:39:49.885Z,99.31
2023-01-19T21:42:19.721Z,99.10
2023-01-19T21:44:51.697Z,98.99
2023-01-19T21:47:21.698Z,99.03
2023-01-19T21:51:41.157Z,98.81
2023-01-19T21:54:11.097Z,98.96
2023-01-19T21:56:43.487Z,98.98
2023-01-19T21:59:17.292Z,99.13
2023-01-19T22:01:48.923Z,99.12
2023-01-19T22:04:18.838Z,99.28
2023-01-19T22:06:50.199Z,99.47
2023-01-19T22:09:20.080Z,99.66
2023-01-19T22:11:49.851Z,99.73
2023-01-19T22:14:19.599Z,99.98
2023-01-19T22:16:49.351Z,100.00
2023-01-19T22:19:19.150Z,100.00
2023-01-19T22:21:50.417Z,100.00
2023-01-19T22:24:20.158Z,100.00
2023-01-19T22:26:49.819Z,100.00
2023-01-19T22:29:19.639Z,100.00
2023-01-19T22:31:51.301Z,100.00
2023-01-19T22:34:22.179Z,100.00
2023-01-19T22:36:53.361Z,100.00
2023-01-19T22:39:23.125Z,100.00
2023-01-19T22:41:53.499Z,100.00
2023-01-19T22:44:24.643Z,100.00
2023-01-19T22:46:57.947Z,100.00
2023-01-19T22:49:27.658Z,100.00
2023-01-19T22:51:59.137Z,100.00
2023-01-19T22:54:30.255Z,100.00
2023-01-19T22:57:01.621Z,99.89
2023-01-19T22:59:31.644Z,99.51
2023-01-19T23:02:01.518Z,99.12
2023-01-19T23:04:31.431Z,98.84
2023-01-19T23:07:02.617Z,98.48
2023-01-19T23:09:32.579Z,98.13
2023-01-19T23:12:03.037Z,98.10
2023-01-19T23:14:32.964Z,98.02
2023-01-19T23:17:02.741Z,96.89
2023-01-19T23:19:32.544Z,96.22
2023-01-19T23:22:03.938Z,95.25
2023-01-19T23:24:33.797Z,95.26
2023-01-19T23:27:03.638Z,95.43
2023-01-19T23:29:33.573Z,95.60
2023-01-19T23:32:04.006Z,95.55
2023-01-19T23:34:33.977Z,95.46
2023-01-19T23:37:05.198Z,95.12
2023-01-19T23:39:35.097Z,95.35
2023-01-19T23:42:05.397Z,95.67
2023-01-19T23:44:36.157Z,95.00
2023-01-19T23:47:06.097Z,95.46
2023-01-19T23:49:35.859Z,95.16
2023-01-19T23:52:08.017Z,94.90
2023-01-19T23:54:38.064Z,94.76
2023-01-19T23:57:07.857Z,94.36
2023-01-19T23:59:37.760Z,94.17
